createdAt,value
2018-03-07T00:01:25.026Z,97.16
2018-03-07T00:03:54.265Z,97.42
2018-03-07T00:06:23.473Z,97.78
2018-03-07T00:08:53.043Z,97.63
2018-03-07T00:11:22.387Z,98.22
2018-03-07T00:13:51.479Z,97.34
2018-03-07T00:16:21.073Z,97.04
2018-03-07T00:18:50.229Z,97.14
2018-03-07T00:21:19.465Z,97.64
2018-03-07T00:23:48.959Z,97.79
2018-03-07T00:26:18.438Z,95.38
2018-03-07T00:28:47.781Z,94.30
2018-03-07T00:31:17.149Z,96.04
2018-03-07T00:33:46.966Z,96.82
2018-03-07T00:36:16.434Z,97.12
2018-03-07T00:38:45.715Z,97.54
2018-03-07T00:41:15.109Z,98.23
2018-03-07T00:43:44.061Z,97.92
2018-03-07T00:46:13.473Z,97.92
2018-03-07T00:48:42.783Z,98.20
2018-03-07T00:51:11.857Z,98.51
2018-03-07T00:53:41.196Z,98.26
2018-03-07T00:56:10.541Z,97.50
2018-03-07T00:58:39.961Z,98.08
2018-03-07T01:01:09.377Z,98.56
2018-03-07T01:03:38.579Z,97.24
2018-03-07T01:06:08.117Z,97.16
2018-03-07T01:08:37.713Z,96.78
2018-03-07T01:11:06.890Z,97.29
2018-03-07T01:13:36.277Z,97.52
2018-03-07T01:16:05.491Z,96.96
2018-03-07T01:18:34.734Z,97.31
2018-03-07T01:21:04.194Z,97.42
2018-03-07T01:23:33.842Z,97.42
2018-03-07T01:26:02.989Z,96.70
2018-03-07T01:28:32.537Z,96.32
2018-03-07T01:31:01.703Z,97.34
2018-03-07T01:33:31.197Z,97.64
2018-03-07T01:36:00.801Z,97.53
2018-03-07T01:38:29.901Z,98.23
2018-03-07T01:40:59.221Z,97.88
2018-03-07T01:43:28.621Z,97.42
2018-03-07T01:45:58.009Z,97.05
2018-03-07T01:48:27.223Z,96.90
2018-03-07T01:50:56.281Z,97.03
2018-03-07T01:53:25.452Z,97.48
2018-03-07T01:55:54.805Z,97.21
2018-03-07T01:58:24.205Z,97.66
2018-03-07T02:00:53.713Z,96.68
2018-03-07T02:03:22.948Z,96.53
2018-03-07T02:05:52.450Z,97.44
2018-03-07T02:08:21.729Z,97.96
2018-03-07T02:10:50.957Z,97.44
2018-03-07T02:13:20.229Z,97.56
2018-03-07T02:15:49.527Z,98.27
2018-03-07T02:18:18.721Z,97.37
2018-03-07T02:20:47.909Z,97.65
2018-03-07T02:23:17.313Z,97.21
2018-03-07T02:25:46.527Z,97.82
2018-03-07T02:28:15.770Z,97.68
2018-03-07T02:30:45.217Z,98.26
2018-03-07T02:33:15.186Z,98.38
2018-03-07T02:35:44.533Z,98.29
2018-03-07T02:38:13.739Z,97.06
2018-03-07T02:40:43.112Z,97.62
2018-03-07T02:43:13.603Z,98.06
2018-03-07T02:45:43.013Z,97.43
2018-03-07T02:48:12.607Z,98.26
2018-03-07T02:50:42.345Z,97.82
2018-03-07T02:53:11.737Z,97.66
2018-03-07T02:55:41.253Z,98.28
2018-03-07T02:58:10.326Z,98.56
2018-03-07T03:00:39.697Z,98.08
2018-03-07T03:03:09.201Z,98.43
2018-03-07T03:05:38.131Z,97.83
2018-03-07T03:08:07.431Z,97.15
2018-03-07T03:10:36.526Z,98.98
2018-03-07T03:13:05.711Z,97.93
2018-03-07T03:15:34.781Z,99.43
2018-03-07T03:18:04.185Z,98.69
2018-03-07T03:20:33.390Z,98.29
2018-03-07T03:23:02.826Z,98.40
2018-03-07T03:25:32.185Z,98.03
2018-03-07T03:28:01.945Z,98.25
2018-03-07T03:30:31.107Z,98.52
2018-03-07T03:33:00.805Z,99.69
2018-03-07T03:35:30.250Z,98.83
2018-03-07T03:37:59.667Z,99.16
2018-03-07T03:40:28.812Z,98.69
2018-03-07T03:42:58.115Z,98.76
2018-03-07T03:45:27.409Z,100.00
2018-03-07T03:47:56.709Z,99.60
2018-03-07T03:50:26.013Z,97.91
2018-03-07T03:52:55.463Z,97.01
2018-03-07T03:55:24.613Z,97.30
2018-03-07T03:57:53.826Z,97.13
2018-03-07T04:00:23.260Z,95.70
2018-03-07T04:02:52.500Z,96.48
2018-03-07T04:05:21.878Z,97.17
2018-03-07T04:07:51.041Z,98.11
2018-03-07T04:10:20.417Z,98.43
2018-03-07T04:12:49.653Z,99.32
2018-03-07T04:15:19.121Z,98.99
2018-03-07T04:17:48.430Z,98.86
2018-03-07T04:20:17.765Z,98.87
2018-03-07T04:22:47.269Z,98.15
2018-03-07T04:25:16.691Z,96.94
2018-03-07T04:27:45.882Z,96.18
2018-03-07T04:30:15.170Z,96.45
2018-03-07T04:32:44.225Z,95.57
2018-03-07T04:35:13.638Z,96.87
2018-03-07T04:37:42.729Z,97.15
2018-03-07T04:40:12.028Z,97.59
2018-03-07T04:42:41.475Z,99.69
2018-03-07T04:45:10.888Z,98.32
2018-03-07T04:47:40.077Z,98.07
2018-03-07T04:50:09.547Z,98.96
2018-03-07T04:52:39.145Z,96.69
2018-03-07T04:55:08.241Z,97.92
2018-03-07T04:57:37.858Z,99.22
2018-03-07T05:00:07.191Z,98.32
2018-03-07T05:02:36.570Z,96.99
2018-03-07T05:05:05.809Z,96.29
2018-03-07T05:07:35.220Z,95.23
2018-03-07T05:10:04.463Z,95.40
2018-03-07T05:12:33.957Z,92.79
2018-03-07T05:15:03.200Z,92.39
2018-03-07T05:17:32.420Z,93.72
2018-03-07T05:20:01.866Z,93.91
2018-03-07T05:22:31.325Z,94.27
2018-03-07T05:25:00.509Z,94.05
2018-03-07T05:27:29.528Z,91.83
2018-03-07T05:29:58.695Z,89.88
2018-03-07T05:32:27.920Z,91.34
2018-03-07T05:34:57.253Z,92.51
2018-03-07T05:37:26.317Z,92.46
2018-03-07T05:39:55.673Z,93.29
2018-03-07T05:42:24.761Z,92.69
2018-03-07T05:44:54.242Z,92.16
2018-03-07T05:47:23.722Z,89.16
2018-03-07T05:49:53.029Z,91.17
2018-03-07T05:52:22.360Z,90.61
2018-03-07T05:54:51.768Z,89.10
2018-03-07T05:57:21.082Z,91.16
2018-03-07T05:59:50.581Z,90.39
2018-03-07T06:02:19.659Z,89.37
2018-03-07T06:04:49.237Z,87.78
2018-03-07T06:07:18.237Z,86.92
2018-03-07T06:09:47.310Z,85.73
2018-03-07T06:12:16.434Z,86.15
2018-03-07T06:14:45.817Z,87.01
2018-03-07T06:17:15.217Z,87.71
2018-03-07T06:19:44.375Z,87.60
2018-03-07T06:22:13.869Z,87.16
2018-03-07T06:24:43.169Z,87.33
2018-03-07T06:27:12.586Z,86.92
2018-03-07T06:29:42.795Z,86.39
2018-03-07T06:32:12.107Z,87.45
2018-03-07T06:34:41.545Z,87.39
2018-03-07T06:37:10.905Z,86.48
2018-03-07T06:39:40.413Z,87.78
2018-03-07T06:42:09.631Z,87.64
2018-03-07T06:44:39.217Z,87.65
2018-03-07T06:47:08.631Z,87.91
2018-03-07T06:49:37.829Z,87.11
2018-03-07T06:52:07.226Z,87.08
2018-03-07T06:54:36.566Z,86.49
2018-03-07T06:57:06.039Z,86.53
2018-03-07T06:59:35.392Z,85.68
2018-03-07T07:02:04.453Z,84.59
2018-03-07T07:04:33.635Z,84.76
2018-03-07T07:07:02.825Z,83.66
2018-03-07T07:09:32.070Z,83.58
2018-03-07T07:12:01.886Z,83.15
2018-03-07T07:14:31.447Z,83.75
2018-03-07T07:17:00.975Z,83.09
2018-03-07T07:19:30.197Z,82.30
2018-03-07T07:21:59.549Z,82.78
2018-03-07T07:24:28.788Z,82.71
2018-03-07T07:26:58.059Z,83.36
2018-03-07T07:29:27.259Z,81.73
2018-03-07T07:31:56.785Z,82.22
2018-03-07T07:34:26.053Z,82.18
2018-03-07T07:36:55.561Z,81.07
2018-03-07T07:39:24.863Z,81.25
2018-03-07T07:41:54.283Z,81.12
2018-03-07T07:44:23.669Z,80.69
2018-03-07T07:46:52.975Z,80.97
2018-03-07T07:49:22.216Z,81.08
2018-03-07T07:51:51.858Z,81.19
2018-03-07T07:54:21.099Z,80.88
2018-03-07T07:56:50.319Z,80.33
2018-03-07T07:59:19.458Z,80.95
2018-03-07T08:01:48.377Z,80.69
2018-03-07T08:04:18.078Z,80.58
2018-03-07T08:06:47.388Z,80.15
2018-03-07T08:09:16.944Z,80.60
2018-03-07T08:11:46.405Z,80.59
2018-03-07T08:14:15.994Z,79.87
2018-03-07T08:16:45.487Z,79.53
2018-03-07T08:19:14.936Z,79.54
2018-03-07T08:21:44.121Z,79.59
2018-03-07T08:24:13.326Z,78.95
2018-03-07T08:26:42.562Z,78.81
2018-03-07T08:29:11.663Z,78.55
2018-03-07T08:31:41.101Z,78.80
2018-03-07T08:34:10.366Z,79.54
2018-03-07T08:36:39.850Z,79.37
2018-03-07T08:39:08.821Z,79.06
2018-03-07T08:41:37.982Z,77.91
2018-03-07T08:44:06.959Z,77.93
2018-03-07T08:46:36.257Z,77.79
2018-03-07T08:49:05.733Z,77.58
2018-03-07T08:51:35.224Z,77.47
2018-03-07T08:54:04.465Z,77.96
2018-03-07T08:56:33.813Z,78.10
2018-03-07T08:59:03.129Z,78.20
2018-03-07T09:01:32.358Z,78.48
2018-03-07T09:04:01.638Z,78.28
2018-03-07T09:06:31.156Z,78.00
2018-03-07T09:09:00.521Z,76.85
2018-03-07T09:11:29.878Z,76.58
2018-03-07T09:13:59.079Z,76.14
2018-03-07T09:16:28.363Z,76.22
2018-03-07T09:18:57.682Z,75.58
2018-03-07T09:21:26.794Z,75.37
2018-03-07T09:23:55.966Z,74.85
2018-03-07T09:26:25.422Z,74.63
2018-03-07T09:28:54.911Z,74.83
2018-03-07T09:31:24.173Z,74.50
2018-03-07T09:33:53.481Z,74.54
2018-03-07T09:36:22.582Z,74.82
2018-03-07T09:38:51.839Z,74.71
2018-03-07T09:41:21.015Z,74.44
2018-03-07T09:43:50.280Z,74.52
2018-03-07T09:46:19.526Z,74.28
2018-03-07T09:48:48.821Z,73.88
2018-03-07T09:51:18.121Z,73.79
2018-03-07T09:53:47.536Z,74.15
2018-03-07T09:56:16.968Z,73.80
2018-03-07T09:58:46.341Z,72.93
2018-03-07T10:01:15.440Z,72.96
2018-03-07T10:03:44.891Z,72.88
2018-03-07T10:06:14.175Z,72.35
2018-03-07T10:08:43.528Z,72.60
2018-03-07T10:11:12.666Z,72.45
2018-03-07T10:13:41.977Z,71.72
2018-03-07T10:16:11.017Z,71.51
2018-03-07T10:18:40.229Z,71.24
2018-03-07T10:21:09.487Z,70.72
2018-03-07T10:23:38.843Z,69.55
2018-03-07T10:26:08.295Z,68.81
2018-03-07T10:28:37.690Z,68.52
2018-03-07T10:31:07.053Z,67.39
2018-03-07T10:33:36.244Z,66.32
2018-03-07T10:36:05.323Z,66.35
2018-03-07T10:38:34.543Z,66.93
2018-03-07T10:41:03.694Z,66.65
2018-03-07T10:43:32.929Z,66.88
2018-03-07T10:46:02.019Z,66.57
2018-03-07T10:48:31.458Z,66.24
2018-03-07T10:51:00.709Z,66.58
2018-03-07T10:53:29.943Z,65.95
2018-03-07T10:55:59.440Z,65.16
2018-03-07T10:58:28.741Z,64.44
2018-03-07T11:00:58.245Z,64.47
2018-03-07T11:03:27.689Z,63.26
2018-03-07T11:05:57.166Z,63.59
2018-03-07T11:08:26.512Z,61.90
2018-03-07T11:10:55.525Z,61.94
2018-03-07T11:13:24.916Z,61.50
2018-03-07T11:15:54.206Z,62.15
2018-03-07T11:18:23.567Z,61.17
2018-03-07T11:20:52.719Z,60.14
2018-03-07T11:23:21.953Z,58.18
2018-03-07T11:25:51.257Z,59.38
2018-03-07T11:28:20.453Z,57.79
2018-03-07T11:30:49.904Z,56.80
2018-03-07T11:33:19.102Z,56.25
2018-03-07T11:35:48.606Z,56.34
2018-03-07T11:38:17.875Z,54.83
2018-03-07T11:40:46.933Z,55.03
2018-03-07T11:43:16.055Z,55.37
2018-03-07T11:45:45.214Z,55.62
2018-03-07T11:48:14.473Z,54.83
2018-03-07T11:50:43.872Z,54.70
2018-03-07T11:53:13.016Z,53.81
2018-03-07T11:55:42.253Z,52.10
2018-03-07T11:58:11.720Z,53.16
2018-03-07T12:00:41.050Z,52.19
2018-03-07T12:03:10.261Z,52.64
2018-03-07T12:05:39.829Z,52.98
2018-03-07T12:08:09.078Z,51.29
2018-03-07T12:10:38.577Z,50.47
2018-03-07T12:13:08.139Z,50.18
2018-03-07T12:15:38.201Z,50.71
2018-03-07T12:18:07.564Z,50.68
2018-03-07T12:20:36.845Z,50.68
2018-03-07T12:23:06.012Z,51.11
2018-03-07T12:25:35.890Z,51.95
2018-03-07T12:28:05.209Z,52.33
2018-03-07T12:30:34.633Z,52.28
2018-03-07T12:33:03.882Z,52.90
2018-03-07T12:35:33.244Z,52.92
2018-03-07T12:38:02.683Z,52.74
2018-03-07T12:40:32.441Z,52.87
2018-03-07T12:43:01.695Z,53.00
2018-03-07T12:45:30.781Z,53.38
2018-03-07T12:47:59.765Z,54.35
2018-03-07T12:50:29.143Z,53.42
2018-03-07T12:52:58.267Z,51.98
2018-03-07T12:55:27.781Z,50.42
2018-03-07T12:57:57.347Z,50.26
2018-03-07T13:00:26.674Z,48.41
2018-03-07T13:02:56.045Z,47.63
2018-03-07T13:05:26.231Z,46.52
2018-03-07T13:07:55.936Z,46.34
2018-03-07T13:10:25.283Z,45.72
2018-03-07T13:12:54.585Z,45.98
2018-03-07T13:15:23.881Z,44.90
2018-03-07T13:17:52.845Z,43.85
2018-03-07T13:20:22.542Z,43.10
2018-03-07T13:22:52.301Z,43.23
2018-03-07T13:25:21.721Z,43.33
2018-03-07T13:27:51.219Z,43.15
2018-03-07T13:30:20.781Z,43.07
2018-03-07T13:32:50.025Z,43.68
2018-03-07T13:35:19.381Z,43.54
2018-03-07T13:37:48.769Z,43.49
2018-03-07T13:40:18.333Z,43.86
2018-03-07T13:42:48.042Z,43.91
2018-03-07T13:45:17.708Z,44.91
2018-03-07T13:47:47.566Z,44.05
2018-03-07T13:50:17.317Z,42.31
2018-03-07T13:52:46.785Z,41.61
2018-03-07T13:55:16.393Z,41.75
2018-03-07T13:57:45.699Z,41.82
2018-03-07T14:00:15.479Z,42.85
2018-03-07T14:02:44.910Z,43.66
2018-03-07T14:05:14.682Z,44.32
2018-03-07T14:07:43.771Z,44.97
2018-03-07T14:10:13.165Z,46.04
2018-03-07T14:12:43.663Z,47.63
2018-03-07T14:15:12.968Z,48.38
2018-03-07T14:17:42.149Z,47.83
2018-03-07T14:20:11.505Z,46.67
2018-03-07T14:22:40.814Z,45.76
2018-03-07T14:25:10.153Z,45.70
2018-03-07T14:27:39.503Z,44.68
2018-03-07T14:30:08.761Z,44.21
2018-03-07T14:32:37.863Z,44.15
2018-03-07T14:35:07.219Z,44.50
2018-03-07T14:37:36.674Z,44.84
2018-03-07T14:40:06.107Z,45.24
2018-03-07T14:42:35.346Z,45.09
2018-03-07T14:45:04.566Z,45.06
2018-03-07T14:47:33.753Z,45.77
2018-03-07T14:50:02.876Z,45.75
2018-03-07T14:52:32.279Z,46.34
2018-03-07T14:55:01.362Z,46.83
2018-03-07T14:57:30.565Z,47.08
2018-03-07T14:59:59.747Z,47.26
2018-03-07T15:02:29.270Z,47.96
2018-03-07T15:04:58.624Z,48.41
2018-03-07T15:07:28.304Z,47.74
2018-03-07T15:09:57.691Z,48.18
2018-03-07T15:12:27.150Z,48.54
2018-03-07T15:14:56.345Z,49.30
2018-03-07T15:17:25.595Z,49.60
2018-03-07T15:19:54.946Z,49.19
2018-03-07T15:22:24.511Z,49.93
2018-03-07T15:24:53.629Z,50.53
2018-03-07T15:27:23.350Z,48.98
2018-03-07T15:29:52.806Z,47.36
2018-03-07T15:32:22.211Z,46.95
2018-03-07T15:34:51.778Z,47.73
2018-03-07T15:37:21.080Z,47.40
2018-03-07T15:39:50.117Z,47.43
2018-03-07T15:42:19.532Z,46.60
2018-03-07T15:44:49.487Z,47.60
2018-03-07T15:47:19.145Z,49.10
2018-03-07T15:49:48.867Z,51.11
2018-03-07T15:52:18.054Z,52.58
2018-03-07T15:54:47.623Z,53.01
2018-03-07T15:57:17.025Z,53.24
2018-03-07T15:59:46.469Z,54.03
2018-03-07T16:02:15.994Z,54.75
2018-03-07T16:04:45.085Z,54.31
2018-03-07T16:07:17.550Z,54.57
2018-03-07T16:09:46.911Z,55.24
2018-03-07T16:12:16.271Z,56.69
2018-03-07T16:14:45.721Z,57.31
2018-03-07T16:17:15.161Z,58.86
2018-03-07T16:19:44.356Z,60.72
2018-03-07T16:22:16.142Z,62.06
2018-03-07T16:24:45.445Z,63.27
2018-03-07T16:27:14.692Z,64.04
2018-03-07T16:29:43.939Z,63.94
2018-03-07T16:32:13.287Z,64.37
2018-03-07T16:34:42.589Z,63.88
2018-03-07T16:37:11.990Z,64.30
2018-03-07T16:39:41.237Z,65.67
2018-03-07T16:42:10.451Z,66.02
2018-03-07T16:44:40.042Z,66.38
2018-03-07T16:47:09.183Z,67.25
2018-03-07T16:49:38.141Z,67.23
2018-03-07T16:52:07.113Z,67.82
2018-03-07T16:54:36.422Z,65.74
2018-03-07T16:57:05.710Z,64.90
2018-03-07T16:59:34.717Z,65.13
2018-03-07T17:02:04.034Z,64.84
2018-03-07T17:04:32.997Z,64.51
2018-03-07T17:07:02.565Z,64.86
2018-03-07T17:09:31.690Z,64.37
2018-03-07T17:12:00.791Z,64.55
2018-03-07T17:14:29.979Z,64.38
2018-03-07T17:16:59.217Z,64.99
2018-03-07T17:19:28.549Z,65.93
2018-03-07T17:21:57.747Z,65.24
2018-03-07T17:24:27.007Z,65.33
2018-03-07T17:26:56.213Z,64.81
2018-03-07T17:29:25.565Z,64.23
2018-03-07T17:31:54.928Z,64.04
2018-03-07T17:34:24.302Z,64.75
2018-03-07T17:36:53.476Z,67.90
2018-03-07T17:39:22.669Z,68.83
2018-03-07T17:41:52.139Z,69.15
2018-03-07T17:44:22.581Z,68.23
2018-03-07T17:46:51.687Z,69.27
2018-03-07T17:49:20.752Z,69.07
2018-03-07T17:51:49.982Z,68.74
2018-03-07T17:54:19.053Z,68.51
2018-03-07T17:56:48.563Z,68.87
2018-03-07T17:59:17.886Z,69.87
2018-03-07T18:01:47.145Z,70.71
2018-03-07T18:04:16.702Z,71.01
2018-03-07T18:06:46.097Z,71.69
2018-03-07T18:09:15.045Z,72.11
2018-03-07T18:11:44.175Z,72.73
2018-03-07T18:14:13.234Z,73.24
2018-03-07T18:16:42.437Z,72.30
2018-03-07T18:19:11.891Z,72.64
2018-03-07T18:21:41.202Z,74.15
2018-03-07T18:24:10.276Z,74.09
2018-03-07T18:26:39.273Z,74.91
2018-03-07T18:29:08.330Z,75.10
2018-03-07T18:31:37.495Z,75.87
2018-03-07T18:34:06.889Z,75.09
2018-03-07T18:36:36.069Z,75.42
2018-03-07T18:39:05.547Z,75.34
2018-03-07T18:41:34.751Z,75.27
2018-03-07T18:44:04.293Z,75.17
2018-03-07T18:46:33.393Z,74.76
2018-03-07T18:49:02.609Z,74.77
2018-03-07T18:51:31.638Z,73.43
2018-03-07T18:54:00.725Z,72.34
2018-03-07T18:56:29.771Z,70.61
2018-03-07T18:58:59.205Z,68.85
2018-03-07T19:01:28.369Z,69.47
2018-03-07T19:03:57.763Z,69.28
2018-03-07T19:06:27.989Z,70.42
2018-03-07T19:08:57.105Z,69.54
2018-03-07T19:11:26.392Z,70.02
2018-03-07T19:13:55.546Z,69.83
2018-03-07T19:16:24.682Z,70.77
2018-03-07T19:18:53.777Z,70.96
2018-03-07T19:21:22.811Z,72.98
2018-03-07T19:23:51.922Z,73.05
2018-03-07T19:26:20.916Z,74.27
2018-03-07T19:28:50.062Z,74.52
2018-03-07T19:31:19.100Z,74.81
2018-03-07T19:33:48.253Z,74.51
2018-03-07T19:36:17.370Z,76.67
2018-03-07T19:38:46.625Z,77.26
2018-03-07T19:41:15.686Z,77.40
2018-03-07T19:43:44.946Z,76.96
2018-03-07T19:46:14.077Z,75.25
2018-03-07T19:48:43.183Z,74.47
2018-03-07T19:51:12.534Z,72.75
2018-03-07T19:53:41.868Z,73.43
2018-03-07T19:56:10.985Z,72.95
2018-03-07T19:58:39.988Z,72.25
2018-03-07T20:01:09.298Z,71.25
2018-03-07T20:03:38.325Z,70.46
2018-03-07T20:06:07.845Z,69.03
2018-03-07T20:08:37.125Z,68.16
2018-03-07T20:11:06.386Z,68.58
2018-03-07T20:13:35.845Z,72.76
2018-03-07T20:16:05.129Z,68.84
2018-03-07T20:18:34.127Z,68.10
2018-03-07T20:21:03.141Z,66.24
2018-03-07T20:23:32.386Z,65.27
2018-03-07T20:26:01.477Z,65.63
2018-03-07T20:28:30.497Z,66.80
2018-03-07T20:30:59.573Z,68.41
2018-03-07T20:33:28.717Z,69.27
2018-03-07T20:35:58.495Z,70.20
2018-03-07T20:38:27.723Z,71.39
2018-03-07T20:40:56.699Z,71.30
2018-03-07T20:43:26.123Z,72.56
2018-03-07T20:45:55.258Z,73.44
2018-03-07T20:48:24.245Z,75.56
2018-03-07T20:50:53.239Z,75.88
2018-03-07T20:53:22.330Z,77.37
2018-03-07T20:55:51.701Z,75.71
2018-03-07T20:58:20.961Z,75.90
2018-03-07T21:00:49.913Z,75.78
2018-03-07T21:03:19.541Z,78.56
2018-03-07T21:05:49.277Z,79.73
2018-03-07T21:08:18.337Z,80.72
2018-03-07T21:10:47.891Z,80.73
2018-03-07T21:13:17.221Z,82.87
2018-03-07T21:15:46.625Z,84.86
2018-03-07T21:18:15.881Z,85.67
2018-03-07T21:20:45.403Z,86.19
2018-03-07T21:23:15.520Z,85.70
2018-03-07T21:25:44.753Z,84.33
2018-03-07T21:28:14.317Z,83.42
2018-03-07T21:30:43.587Z,83.64
2018-03-07T21:33:12.677Z,84.32
2018-03-07T21:35:41.939Z,83.08
2018-03-07T21:38:11.245Z,83.06
2018-03-07T21:40:40.447Z,80.78
2018-03-07T21:43:09.933Z,80.16
2018-03-07T21:45:39.444Z,81.85
2018-03-07T21:48:08.598Z,80.61
2018-03-07T21:50:37.680Z,78.95
2018-03-07T21:53:06.936Z,80.31
2018-03-07T21:55:36.206Z,81.11
2018-03-07T21:58:06.191Z,81.60
2018-03-07T22:00:35.546Z,82.30
2018-03-07T22:03:04.800Z,82.48
2018-03-07T22:05:33.895Z,82.92
2018-03-07T22:08:03.230Z,82.98
2018-03-07T22:10:33.013Z,83.69
2018-03-07T22:13:02.298Z,84.44
2018-03-07T22:15:32.113Z,85.33
2018-03-07T22:18:01.399Z,85.49
2018-03-07T22:20:30.485Z,86.30
2018-03-07T22:22:59.537Z,84.86
2018-03-07T22:25:28.993Z,86.36
2018-03-07T22:27:58.081Z,86.81
2018-03-07T22:30:27.365Z,86.57
2018-03-07T22:32:56.715Z,86.98
2018-03-07T22:35:26.840Z,87.87
2018-03-07T22:37:55.932Z,88.21
2018-03-07T22:40:24.972Z,87.09
2018-03-07T22:42:54.163Z,87.40
2018-03-07T22:45:23.621Z,86.82
2018-03-07T22:47:53.231Z,86.46
2018-03-07T22:50:22.222Z,86.62
2018-03-07T22:52:51.792Z,87.61
2018-03-07T22:55:21.245Z,88.05
2018-03-07T22:57:50.568Z,88.67
2018-03-07T23:00:30.963Z,88.68
2018-03-07T23:03:00.505Z,89.51
2018-03-07T23:05:29.898Z,89.98
2018-03-07T23:07:59.060Z,90.10
2018-03-07T23:10:28.345Z,91.18
2018-03-07T23:12:57.622Z,90.86
2018-03-07T23:15:26.741Z,90.33
2018-03-07T23:17:56.189Z,90.24
2018-03-07T23:20:25.170Z,90.49
2018-03-07T23:22:54.791Z,90.71
2018-03-07T23:25:23.935Z,91.34
2018-03-07T23:27:53.009Z,90.71
2018-03-07T23:30:22.350Z,91.45
2018-03-07T23:32:51.586Z,91.64
2018-03-07T23:35:21.050Z,91.58
2018-03-07T23:37:50.303Z,91.67
2018-03-07T23:40:19.649Z,91.90
2018-03-07T23:42:48.953Z,92.48
2018-03-07T23:45:18.379Z,92.01
2018-03-07T23:47:47.652Z,91.57
2018-03-07T23:50:16.867Z,91.89
2018-03-07T23:52:46.356Z,92.44
2018-03-07T23:55:15.728Z,92.94
2018-03-07T23:57:45.165Z,92.72
